EHGR Airport Information

Runway Information
Runway 02 Length 6549 ft width 98 ft
Elevation 49 ft Threshold 191 ft Heading 18
Runway 20 Length 6549 ft Width 98 ft
Elevation 40 ft Threshold 192 ft Heading 198
Runway 10 Length 9118 ft width 148 ft
Elevation 42 ft Threshold 427 ft Heading 100
Runway 28 Length 9118 ft Width 148 ft
Elevation 38 ft Threshold 331 ft Heading 280
Airport Frequencies
Type ARR Name RAPCON WES Frequency 123.575 MHZ
Type GND Name GND Frequency 23.492 MHZ
Type TWR Name TWR Frequency 125.325 MHZ
Airport Navaids
Type TACAN Name Gilze Rijen Frequency 116400 KHZ
Airport Weather Information & NOTAM
ADDS - METARS form results

(1838 UTC 20 April 2021)
Data provider http://aviationweather.gov/metar/data/
 
METAR text: EHGR 201825Z AUTO 29005KT 290V350 9999 NCD 13/06 Q1016 BLU NOSIG
Conditions at: EHGR (GILZE-RIJEN RNLA, NL) observed 1825 UTC 20 April 2021
Temperature: 13.0°C (55°F)
Dewpoint: 6.0°C (43°F) [RH = 62%]
Pressure (altimeter): 30.00 inches Hg (1016.0 mb)
Winds: from the WNW (290 degrees) at 6 MPH (5 knots; 2.6 m/s)
Visibility: 6 or more miles (10+ km)
Ceiling: at least 12,000 feet AGL
Clouds: sky clear below 12,000 feet AGL
Weather: no significant weather observed at this time

METAR text: EHGR 201755Z AUTO 32004KT 290V010 9999 BKN061 16/04 Q1016 BLU NOSIG
Conditions at: EHGR (GILZE-RIJEN RNLA, NL) observed 1755 UTC 20 April 2021
Temperature: 16.0°C (61°F)
Dewpoint: 4.0°C (39°F) [RH = 45%]
Pressure (altimeter): 30.00 inches Hg (1016.0 mb)
Winds: from the NW (320 degrees) at 5 MPH (4 knots; 2.1 m/s)
Visibility: 6 or more miles (10+ km)
Ceiling: 6100 feet AGL
Clouds: broken clouds at 6100 feet AGL
Weather: no significant weather observed at this time

Forecast for: EHGR (GILZE-RIJEN RNLA, NL)
Text: TAF EHGR 201641Z 2017/2105 32005KT CAVOK
Forecast period: 1700 UTC 20 April 2021 to 0500 UTC 21 April 2021
Forecast type: FROM: standard forecast or significant change
Winds: from the NW (320 degrees) at 6 MPH (5 knots; 2.6 m/s)
Visibility: 6 or more miles (10+ km)
Ceiling: unknown
Clouds: missing
Weather: NSW  (no significant weather)
Text: PROB40 2100/2105 3000 BR
Forecast period: 0000 to 0500 UTC 21 April 2021
Forecast type: PROBABLE: 40 percent likelihood of the following during this time
Visibility: 1.86 miles (2.99 km)
Ceiling: unknown
Clouds: missing
Weather: BR  (mist)